Time;durP1;ratioP1;P1;durP2;ratioP2;P2;SDS_P1;SDS_P2;PMS_P1;PMS_P2;Temp;Humidity;BMP_temperature;BMP_pressure;BME280_temperature;BME280_humidity;BME280_pressure;Samples;Min_cycle;Max_cycle;Signal;HPM_P1;HPM_P2
2024/03/01 00:05:13;;;;;;;0.10;0.10;;;;;;;0.81;100.00;98820.25;6171223;23;20070;-79
2024/03/01 00:07:51;;;;;;;;;;;;;;;;;;;;;
2024/03/01 00:10:24;;;;;;;0.00;0.00;;;;;;;0.92;100.00;98821.25;6216752;23;20034;-79
2024/03/01 00:13:40;;;;;;;0.10;0.10;;;;;;;1.01;100.00;98827.06;6193292;23;20016;-79
2024/03/01 00:16:08;;;;;;;0.10;0.10;;;;;;;1.14;100.00;98847.47;6200003;23;20533;-83
2024/03/01 00:19:36;;;;;;;0.00;0.00;;;;;;;0.76;100.00;98787.88;6217748;23;20016;-79
2024/03/01 00:22:02;;;;;;;0.00;0.00;;;;;;;1.10;100.00;98836.38;6064772;23;20110;-80
2024/03/01 00:24:28;;;;;;;0.00;0.00;;;;;;;1.04;100.00;98815.81;6099059;23;20006;-83
2024/03/01 00:26:53;;;;;;;0.10;0.10;;;;;;;1.06;100.00;98802.91;6097539;23;20016;-78
2024/03/01 00:29:19;;;;;;;0.10;0.10;;;;;;;1.16;100.00;98813.84;6103162;23;20022;-79
2024/03/01 00:34:59;;;;;;;0.10;0.10;;;;;;;0.95;100.00;98774.19;6085139;23;20385;-79
2024/03/01 00:37:25;;;;;;;0.00;0.00;;;;;;;0.89;100.00;98775.16;6096216;23;20034;-80
2024/03/01 00:39:51;;;;;;;0.00;0.00;;;;;;;0.81;100.00;98761.03;6074093;23;20014;-80
2024/03/01 00:46:58;;;;;;;;;;;;;;;;;;;;;
2024/03/01 00:49:51;;;;;;;;;;;;;;;;;;;;;
2024/03/01 00:53:16;;;;;;;0.10;0.10;;;;;;;1.11;100.00;98791.41;5960692;23;20441;-80
2024/03/01 00:56:00;;;;;;;0.10;0.10;;;;;;;0.66;100.00;98733.88;5931856;23;20008;-79
2024/03/01 00:58:26;;;;;;;0.10;0.10;;;;;;;0.95;100.00;98779.56;6016847;23;20470;-79
2024/03/01 01:01:12;;;;;;;0.10;0.10;;;;;;;0.92;100.00;98774.66;6047812;23;20069;-79
2024/03/01 01:03:38;;;;;;;0.10;0.10;;;;;;;0.89;100.00;98767.09;6045221;23;20726;-80
2024/03/01 01:06:09;;;;;;;0.00;0.00;;;;;;;0.92;100.00;98771.97;6071473;23;20007;-80
2024/03/01 01:08:35;;;;;;;0.10;0.10;;;;;;;0.87;100.00;98778.09;6045035;23;20017;-79
2024/03/01 01:11:00;;;;;;;0.00;0.00;;;;;;;0.79;100.00;98765.03;6046744;23;19998;-79
2024/03/01 01:13:27;;;;;;;0.10;0.10;;;;;;;0.64;100.00;98746.75;6069032;23;20063;-79
2024/03/01 01:16:25;;;;;;;;;;;;;;;;;;;;;
2024/03/01 01:18:53;;;;;;;0.10;0.10;;;;;;;0.67;100.00;98740.88;5981372;23;20023;-78
2024/03/01 01:21:19;;;;;;;0.00;0.00;;;;;;;0.58;100.00;98726.19;6104776;23;20101;-77
2024/03/01 01:23:48;;;;;;;0.00;0.00;;;;;;;0.56;100.00;98723.75;6187609;23;20401;-77
2024/03/01 01:26:15;;;;;;;0.10;0.10;;;;;;;0.28;100.00;98671.63;6190108;23;20047;-78
2024/03/01 01:28:51;;;;;;;;;;;;;;;;;;;;;
2024/03/01 01:31:35;;;;;;;0.10;0.10;;;;;;;0.54;100.00;98692.78;6190088;23;20101;-79
2024/03/01 01:34:00;;;;;;;0.00;0.00;;;;;;;0.54;100.00;98647.03;6188093;23;20004;-78
2024/03/01 01:36:26;;;;;;;0.00;0.00;;;;;;;0.94;100.00;98659.53;6191165;23;20050;-78
2024/03/01 01:38:51;;;;;;;0.00;0.00;;;;;;;1.27;100.00;98663.22;6164833;23;20012;-77
2024/03/01 01:41:21;;;;;;;0.10;0.10;;;;;;;1.35;100.00;98657.41;6163283;23;20005;-78
2024/03/01 01:43:57;;;;;;;;;;;;;;;;;;;;;
2024/03/01 01:46:23;;;;;;;0.10;0.10;;;;;;;1.05;100.00;98612.81;6189266;23;20015;-77
2024/03/01 01:48:55;;;;;;;0.10;0.10;;;;;;;1.04;100.00;98616.59;6165034;23;20012;-78
2024/03/01 01:51:22;;;;;;;0.10;0.10;;;;;;;1.03;100.00;98609.59;6189071;23;20051;-78
2024/03/01 01:53:58;;;;;;;0.10;0.10;;;;;;;0.96;100.00;98587.41;6138749;23;20029;-79
2024/03/01 01:56:27;;;;;;;0.10;0.10;;;;;;;0.97;100.00;98583.66;6189089;23;20001;-78
2024/03/01 01:58:58;;;;;;;0.10;0.10;;;;;;;0.89;100.00;98559.84;6187622;23;20483;-77
2024/03/01 02:01:24;;;;;;;0.00;0.00;;;;;;;0.77;100.00;98541.94;6186042;23;20091;-76
2024/03/01 02:03:50;;;;;;;0.10;0.10;;;;;;;1.01;100.00;98563.25;6184063;23;20043;-76
2024/03/01 02:06:15;;;;;;;0.10;0.10;;;;;;;0.99;100.00;98560.81;6162065;23;20013;-76
2024/03/01 02:08:45;;;;;;;0.15;0.10;;;;;;;0.97;100.00;98548.66;6181105;23;20005;-75
2024/03/01 02:11:14;;;;;;;0.00;0.00;;;;;;;0.94;100.00;98535.72;6160988;23;20074;-76
2024/03/01 02:13:39;;;;;;;0.10;0.10;;;;;;;0.98;100.00;98520.66;6158055;23;20023;-76
2024/03/01 02:16:05;;;;;;;0.10;0.10;;;;;;;1.05;100.00;98510.53;6186453;23;20424;-75
2024/03/01 02:18:33;;;;;;;0.00;0.00;;;;;;;1.20;100.00;98524.19;6184948;23;20112;-77
2024/03/01 02:21:19;;;;;;;0.00;0.00;;;;;;;1.21;100.00;98508.84;6185210;23;20025;-76
2024/03/01 02:24:08;;;;;;;;;;;;;;;;;;;;;
2024/03/01 02:30:09;;;;;;;0.10;0.10;;;;;;;1.26;100.00;98448.88;6175242;23;20013;-80
2024/03/01 02:32:36;;;;;;;0.10;0.10;;;;;;;1.44;100.00;98448.50;6161210;23;20016;-79
2024/03/01 02:35:01;;;;;;;0.10;0.10;;;;;;;1.46;100.00;98432.91;6164069;23;20020;-79
2024/03/01 02:37:27;;;;;;;0.00;0.00;;;;;;;1.52;100.00;98418.41;6185079;23;20020;-77
2024/03/01 02:39:52;;;;;;;0.00;0.00;;;;;;;1.69;100.00;98415.56;6161297;23;20083;-78
2024/03/01 02:42:35;;;;;;;0.10;0.10;;;;;;;1.75;100.00;98416.44;6162170;23;20011;-78
2024/03/01 02:49:10;;;;;;;;;;;;;;;;;;;;;
2024/03/01 02:52:32;;;;;;;;;;;;;;;;;;;;;
2024/03/01 02:54:58;;;;;;;0.00;0.00;;;;;;;2.00;100.00;98320.63;6095288;23;20007;-79
2024/03/01 02:57:59;;;;;;;0.03;0.03;;;;;;;2.22;100.00;98333.97;6071285;23;20456;-78
2024/03/01 03:00:40;;;;;;;;;;;;;;;;;;;;;
2024/03/01 03:07:11;;;;;;;;;;;;;;;;;;;;;
2024/03/01 03:10:05;;;;;;;0.00;0.00;;;;;;;2.60;100.00;98259.94;6127326;23;20457;-77
2024/03/01 03:12:31;;;;;;;0.00;0.00;;;;;;;2.79;100.00;98264.81;6181456;23;20000;-78
2024/03/01 03:15:16;;;;;;;0.00;0.00;;;;;;;2.95;100.00;98255.66;6190583;23;20039;-77
2024/03/01 03:17:42;;;;;;;0.10;0.10;;;;;;;2.95;100.00;98234.06;6185074;23;20009;-78
2024/03/01 03:20:35;;;;;;;0.00;0.00;;;;;;;2.88;100.00;98195.72;6179693;23;20008;-77
2024/03/01 03:23:02;;;;;;;0.10;0.10;;;;;;;3.09;100.00;98206.50;6192148;23;20509;-78
2024/03/01 03:25:28;;;;;;;0.00;0.00;;;;;;;3.44;100.00;98239.97;6193841;23;20048;-76
2024/03/01 03:27:53;;;;;;;0.00;0.00;;;;;;;3.47;100.00;98196.19;6189995;23;20099;-77
2024/03/01 03:34:14;;;;;;;;;;;;;;;;;;;;;
2024/03/01 03:37:12;;;;;;;0.00;0.00;;;;;;;3.61;100.00;98110.75;6221226;23;20024;-77
2024/03/01 03:42:28;;;;;;;0.00;0.00;;;;;;;3.82;100.00;98095.22;6196649;23;20018;-78
2024/03/01 03:45:40;;;;;;;0.00;0.00;;;;;;;4.01;100.00;98095.38;6188718;23;20123;-77
2024/03/01 03:48:28;;;;;;;;;;;;;;;;;;;;;
2024/03/01 03:51:32;;;;;;;0.00;0.00;;;;;;;3.88;100.00;98033.03;6218804;23;20027;-78
2024/03/01 03:54:04;;;;;;;0.10;0.10;;;;;;;4.22;100.00;98060.09;6189718;23;20011;-78
2024/03/01 03:56:54;;;;;;;0.10;0.10;;;;;;;4.31;100.00;98053.00;6220581;23;20075;-78
2024/03/01 04:02:31;;;;;;;0.00;0.00;;;;;;;4.45;100.00;98025.28;6210576;23;20000;-78
2024/03/01 04:05:32;;;;;;;;;;;;;;;;;;;;;
2024/03/01 04:07:58;;;;;;;0.00;0.00;;;;;;;4.71;100.00;97991.44;6183885;23;20028;-78
2024/03/01 04:10:24;;;;;;;0.00;0.00;;;;;;;4.92;100.00;97979.59;6200391;23;20020;-77
2024/03/01 04:12:50;;;;;;;0.00;0.00;;;;;;;5.15;100.00;98008.56;6228913;23;20064;-78
2024/03/01 04:15:15;;;;;;;0.00;0.00;;;;;;;5.03;100.00;97971.03;6219537;23;19980;-77
2024/03/01 04:17:41;;;;;;;0.10;0.10;;;;;;;5.26;100.00;97976.72;6198593;23;20332;-78
2024/03/01 04:20:11;;;;;;;0.00;0.00;;;;;;;5.39;100.00;97986.84;6194960;23;20087;-75
2024/03/01 04:22:37;;;;;;;0.00;0.00;;;;;;;5.36;100.00;97995.56;6168559;23;20020;-76
2024/03/01 04:25:05;;;;;;;0.00;0.00;;;;;;;5.41;100.00;97970.31;6193054;23;19992;-76
2024/03/01 04:27:30;;;;;;;0.00;0.00;;;;;;;5.10;100.00;97938.19;6193314;23;20427;-77
2024/03/01 04:29:56;;;;;;;0.00;0.00;;;;;;;4.87;100.00;97926.28;6168431;23;20024;-77
2024/03/01 04:32:21;;;;;;;0.00;0.00;;;;;;;4.61;100.00;97913.03;6213596;23;20501;-77
2024/03/01 04:34:47;;;;;;;0.00;0.00;;;;;;;4.43;100.00;97903.78;6167569;23;20007;-76
2024/03/01 04:37:14;;;;;;;0.00;0.00;;;;;;;4.25;100.00;97886.38;6165281;23;20083;-76
2024/03/01 04:39:40;;;;;;;0.00;0.00;;;;;;;4.22;100.00;97915.91;6192541;23;20016;-76
2024/03/01 04:42:05;;;;;;;0.10;0.10;;;;;;;4.16;100.00;97898.91;6192699;23;20004;-76
2024/03/01 04:44:31;;;;;;;0.00;0.00;;;;;;;4.16;100.00;97888.09;6191642;23;20008;-75
2024/03/01 04:46:56;;;;;;;0.00;0.00;;;;;;;4.11;100.00;97890.84;6216605;23;20079;-74
2024/03/01 04:49:22;;;;;;;0.00;0.00;;;;;;;4.08;100.00;97867.88;6191134;23;20043;-74
2024/03/01 04:51:47;;;;;;;0.00;0.00;;;;;;;4.11;100.00;97877.34;6190688;23;20036;-76
2024/03/01 04:54:13;;;;;;;0.00;0.00;;;;;;;4.07;100.00;97866.25;6191525;23;20108;-76
2024/03/01 04:56:38;;;;;;;0.00;0.00;;;;;;;4.08;100.00;97859.78;6214550;23;19992;-75
2024/03/01 04:59:04;;;;;;;0.10;0.10;;;;;;;4.08;100.00;97845.44;6168986;23;20011;-75
2024/03/01 05:01:29;;;;;;;0.00;0.00;;;;;;;3.98;100.00;97839.03;6167018;23;20017;-74
2024/03/01 05:03:55;;;;;;;0.10;0.10;;;;;;;4.08;100.00;97915.78;6192049;23;20443;-74
2024/03/01 05:06:20;;;;;;;0.00;0.00;;;;;;;4.07;100.00;97855.44;6192220;23;20011;-76
2024/03/01 05:08:46;;;;;;;0.00;0.00;;;;;;;3.97;100.00;97818.53;6190172;23;20019;-74
2024/03/01 05:11:15;;;;;;;0.10;0.10;;;;;;;4.00;100.00;97825.22;6192072;23;19995;-76
2024/03/01 05:13:41;;;;;;;0.03;0.03;;;;;;;3.99;100.00;97820.94;6165387;23;19988;-76
2024/03/01 05:16:06;;;;;;;0.10;0.10;;;;;;;3.82;100.00;97797.03;6217971;23;19997;-76
2024/03/01 05:18:32;;;;;;;0.00;0.00;;;;;;;3.73;100.00;97763.63;6190359;23;20004;-75
2024/03/01 05:20:58;;;;;;;0.00;0.00;;;;;;;3.94;100.00;97810.97;6163937;23;20191;-75
2024/03/01 05:23:23;;;;;;;0.10;0.10;;;;;;;3.90;100.00;97788.31;6166509;23;20031;-75
2024/03/01 05:25:49;;;;;;;0.08;0.08;;;;;;;3.89;100.00;97778.56;6188624;23;20072;-76
2024/03/01 05:28:17;;;;;;;0.00;0.00;;;;;;;3.79;100.00;97765.16;6219575;23;20068;-75
2024/03/01 05:30:44;;;;;;;0.00;0.00;;;;;;;3.69;100.00;97730.13;6190802;23;20009;-75
2024/03/01 05:33:12;;;;;;;0.10;0.10;;;;;;;3.72;100.00;97751.19;6168606;23;20051;-75
2024/03/01 05:35:38;;;;;;;0.00;0.00;;;;;;;3.52;100.00;97739.50;6189263;23;20009;-75
2024/03/01 05:38:05;;;;;;;0.00;0.00;;;;;;;3.47;100.00;97731.44;6191630;23;19998;-76
2024/03/01 05:40:31;;;;;;;0.10;0.10;;;;;;;3.27;100.00;97727.84;6167109;23;20009;-75
2024/03/01 05:42:56;;;;;;;0.00;0.00;;;;;;;3.22;100.00;97716.28;6189361;23;20107;-75
2024/03/01 05:45:22;;;;;;;0.00;0.00;;;;;;;3.34;100.00;97710.50;6215685;23;20000;-74
2024/03/01 05:47:47;;;;;;;0.00;0.00;;;;;;;3.24;100.00;97708.69;6165835;23;20016;-75
2024/03/01 05:50:14;;;;;;;0.00;0.00;;;;;;;3.22;100.00;97687.38;6188468;23;20011;-76
2024/03/01 05:52:42;;;;;;;0.00;0.00;;;;;;;3.26;100.00;97672.22;6167418;23;20000;-75
2024/03/01 05:55:08;;;;;;;0.10;0.10;;;;;;;3.26;100.00;97664.09;6187784;23;20054;-75
2024/03/01 05:57:35;;;;;;;0.10;0.10;;;;;;;3.26;100.00;97644.41;6191897;23;20012;-76
2024/03/01 06:00:09;;;;;;;0.00;0.00;;;;;;;3.34;100.00;97635.66;6164291;23;20489;-77
2024/03/01 06:02:35;;;;;;;0.10;0.10;;;;;;;3.41;100.00;97646.13;6168396;23;20012;-76
2024/03/01 06:05:01;;;;;;;0.00;0.00;;;;;;;3.30;100.00;97594.91;6188556;23;20009;-76
2024/03/01 06:07:29;;;;;;;0.00;0.00;;;;;;;3.41;100.00;97581.28;6191770;23;20004;-75
2024/03/01 06:09:57;;;;;;;0.00;0.00;;;;;;;3.29;100.00;97544.69;6192606;23;20023;-75
2024/03/01 06:12:23;;;;;;;0.00;0.00;;;;;;;3.38;100.00;97517.03;6215352;23;20087;-75
2024/03/01 06:14:58;;;;;;;;;;;;;;;;;;;;;
2024/03/01 06:17:24;;;;;;;0.10;0.10;;;;;;;3.54;100.00;97542.75;6215417;23;20083;-76
2024/03/01 06:19:49;;;;;;;0.10;0.10;;;;;;;3.80;100.00;97534.31;6215686;22;20454;-75
2024/03/01 06:22:15;;;;;;;0.03;0.03;;;;;;;3.91;100.00;97524.13;6161576;23;20066;-75
2024/03/01 06:24:40;;;;;;;0.00;0.00;;;;;;;4.03;100.00;97524.50;6191613;23;20309;-76
2024/03/01 06:27:09;;;;;;;0.00;0.00;;;;;;;4.12;100.00;97508.41;6164730;23;20016;-77
2024/03/01 06:29:34;;;;;;;0.00;0.00;;;;;;;4.13;100.00;97531.66;6192580;23;20008;-75
2024/03/01 06:32:00;;;;;;;0.00;0.00;;;;;;;4.21;100.00;97544.50;6216367;23;20012;-74
2024/03/01 06:34:25;;;;;;;0.10;0.10;;;;;;;4.27;100.00;97542.53;6165879;23;20008;-75
2024/03/01 06:36:51;;;;;;;0.00;0.00;;;;;;;4.29;100.00;97527.63;6190705;23;20001;-74
2024/03/01 06:39:16;;;;;;;0.00;0.00;;;;;;;4.31;100.00;97522.69;6162185;23;20016;-74
2024/03/01 06:41:42;;;;;;;0.00;0.00;;;;;;;4.26;100.00;97511.94;6163923;23;20015;-74
2024/03/01 06:44:07;;;;;;;0.10;0.10;;;;;;;4.26;100.00;97514.66;6191161;23;20066;-75
2024/03/01 06:46:33;;;;;;;0.00;0.00;;;;;;;4.26;100.00;97508.44;6187461;23;20082;-74
2024/03/01 06:49:00;;;;;;;0.00;0.00;;;;;;;4.25;100.00;97515.78;6167029;23;20005;-74
2024/03/01 06:51:32;;;;;;;0.10;0.10;;;;;;;4.13;100.00;97507.31;6188308;23;20478;-74
2024/03/01 06:53:57;;;;;;;0.00;0.00;;;;;;;4.07;100.00;97503.09;6167773;23;20032;-76
2024/03/01 06:56:34;;;;;;;0.00;0.00;;;;;;;4.05;100.00;97529.63;6191029;23;20011;-76
2024/03/01 06:58:59;;;;;;;0.00;0.00;;;;;;;4.09;100.00;97536.03;6216394;23;19988;-75
2024/03/01 07:01:28;;;;;;;0.00;0.00;;;;;;;4.07;100.00;97532.81;6190481;23;20068;-76
2024/03/01 07:04:01;;;;;;;0.10;0.10;;;;;;;3.97;100.00;97528.38;6164738;23;19997;-74
2024/03/01 07:06:43;;;;;;;;;;;;;;;;;;;;;
2024/03/01 07:09:16;;;;;;;0.00;0.00;;;;;;;3.83;100.00;97506.69;6219228;23;20020;-77
2024/03/01 07:11:45;;;;;;;0.10;0.10;;;;;;;4.00;100.00;97544.81;6192190;23;19993;-74
2024/03/01 07:14:11;;;;;;;0.00;0.00;;;;;;;4.04;100.00;97549.66;6192500;23;20016;-77
2024/03/01 07:16:57;;;;;;;0.00;0.00;;;;;;;3.99;100.00;97543.22;6165238;23;20005;-77
2024/03/01 07:19:29;;;;;;;0.00;0.00;;;;;;;3.94;100.00;97528.97;6190984;23;20017;-75
2024/03/01 07:22:08;;;;;;;0.00;0.00;;;;;;;4.03;100.00;97548.84;6236408;22;20046;-74
2024/03/01 07:24:37;;;;;;;0.00;0.00;;;;;;;3.97;100.00;97531.91;6197627;23;20339;-76
2024/03/01 07:27:03;;;;;;;0.00;0.00;;;;;;;4.09;100.00;97558.50;6222531;23;20004;-75
2024/03/01 07:29:28;;;;;;;0.00;0.00;;;;;;;4.25;100.00;97572.59;6223875;23;20430;-76
2024/03/01 07:31:57;;;;;;;0.00;0.00;;;;;;;4.30;100.00;97574.41;6221146;23;20019;-76
2024/03/01 07:34:22;;;;;;;0.00;0.00;;;;;;;4.24;100.00;97565.56;6222497;23;20019;-76
2024/03/01 07:36:48;;;;;;;0.00;0.00;;;;;;;4.32;100.00;97583.84;6222882;23;20008;-77
2024/03/01 07:39:15;;;;;;;0.00;0.00;;;;;;;4.24;100.00;97584.50;6195178;23;20007;-75
2024/03/01 07:41:41;;;;;;;0.00;0.00;;;;;;;4.20;100.00;97591.59;6197506;23;20012;-76
2024/03/01 07:44:06;;;;;;;0.10;0.10;;;;;;;4.19;100.00;97582.66;6221141;23;20445;-75
2024/03/01 07:46:32;;;;;;;0.10;0.10;;;;;;;4.20;100.00;97591.59;6216189;23;20411;-75
2024/03/01 07:48:57;;;;;;;0.00;0.00;;;;;;;4.14;100.00;97581.94;6172257;23;20091;-75
2024/03/01 07:51:25;;;;;;;0.00;0.00;;;;;;;4.22;100.00;97586.69;6192230;23;20841;-75
2024/03/01 07:53:51;;;;;;;0.10;0.10;;;;;;;4.22;100.00;97581.28;6171626;23;20087;-76
2024/03/01 07:56:23;;;;;;;0.00;0.00;;;;;;;4.32;100.00;97586.53;6195022;23;20008;-74
2024/03/01 07:59:10;;;;;;;0.00;0.00;;;;;;;4.52;100.00;97595.44;6220421;23;20039;-79
2024/03/01 08:01:48;;;;;;;0.10;0.10;;;;;;;4.62;100.00;97570.91;6199598;23;20023;-80
2024/03/01 08:04:16;;;;;;;0.00;0.00;;;;;;;5.15;100.00;97582.41;6201777;23;20016;-79
2024/03/01 08:06:42;;;;;;;0.00;0.00;;;;;;;6.74;100.00;97599.91;6200849;23;20090;-81
2024/03/01 08:09:31;;;;;;;;;;;;;;;;;;;;;
2024/03/01 08:11:59;;;;;;;0.00;0.00;;;;;;;7.46;100.00;97596.09;6228500;23;20438;-83
2024/03/01 08:14:27;;;;;;;0.00;0.00;;;;;;;6.78;100.00;97601.69;6202116;23;20011;-82
2024/03/01 08:16:57;;;;;;;0.00;0.00;;;;;;;6.22;100.00;97595.69;6226185;23;19996;-83
2024/03/01 08:19:36;;;;;;;0.00;0.00;;;;;;;5.74;100.00;97593.47;6227412;23;19992;-80
2024/03/01 08:22:05;;;;;;;0.10;0.10;;;;;;;5.38;100.00;97596.88;6224083;23;20004;-82
2024/03/01 08:24:31;;;;;;;0.00;0.00;;;;;;;5.17;100.00;97607.28;6225615;23;19991;-83
2024/03/01 08:26:57;;;;;;;0.00;0.00;;;;;;;4.92;100.00;97617.50;6199775;23;20012;-82
2024/03/01 08:29:22;;;;;;;0.10;0.10;;;;;;;4.78;100.00;97611.25;6200101;23;20452;-81
2024/03/01 08:31:48;;;;;;;0.10;0.10;;;;;;;4.68;100.00;97602.19;6198692;23;20004;-82
2024/03/01 08:34:20;;;;;;;0.10;0.10;;;;;;;4.69;100.00;97609.22;6224319;23;20012;-82
2024/03/01 08:36:46;;;;;;;0.00;0.00;;;;;;;4.79;100.00;97618.25;6201295;23;20016;-81
2024/03/01 08:39:53;;;;;;;;;;;;;;;;;;;;;
2024/03/01 08:42:35;;;;;;;0.00;0.00;;;;;;;4.21;100.00;97585.09;6228563;23;20042;-78
2024/03/01 08:45:02;;;;;;;0.10;0.10;;;;;;;4.05;100.00;97614.25;6221787;23;20031;-80
2024/03/01 08:47:28;;;;;;;0.00;0.00;;;;;;;3.94;100.00;97635.22;6228915;23;20053;-80
2024/03/01 08:50:12;;;;;;;0.00;0.00;;;;;;;3.92;100.00;97642.00;6223668;23;20012;-79
2024/03/01 08:52:38;;;;;;;0.10;0.10;;;;;;;3.80;100.00;97637.03;6226449;23;20012;-80
2024/03/01 08:55:40;;;;;;;0.10;0.10;;;;;;;4.10;100.00;97641.22;6223254;23;20118;-81
2024/03/01 08:58:14;;;;;;;0.10;0.10;;;;;;;4.31;100.00;97657.19;6192283;23;20012;-81
2024/03/01 09:00:50;;;;;;;0.00;0.00;;;;;;;4.26;100.00;97679.69;6250143;23;20330;-76
2024/03/01 09:03:23;;;;;;;0.00;0.00;;;;;;;4.07;100.00;97666.13;6225442;23;20023;-82
2024/03/01 09:05:50;;;;;;;0.10;0.10;;;;;;;3.96;100.00;97657.38;6226632;23;20026;-80
2024/03/01 09:08:23;;;;;;;0.10;0.10;;;;;;;3.67;100.00;97654.75;6223381;23;19996;-83
2024/03/01 09:10:53;;;;;;;0.00;0.00;;;;;;;3.58;100.00;97662.69;6224964;23;20004;-79
2024/03/01 09:13:19;;;;;;;0.03;0.03;;;;;;;3.39;100.00;97673.44;6198702;23;20054;-82
2024/03/01 09:15:45;;;;;;;0.00;0.00;;;;;;;3.29;100.00;97679.75;6223529;23;19992;-82
2024/03/01 09:18:26;;;;;;;0.10;0.10;;;;;;;3.37;100.00;97689.09;6174345;23;20015;-81
2024/03/01 09:20:56;;;;;;;0.00;0.00;;;;;;;3.40;100.00;97698.53;6224541;23;19988;-82
2024/03/01 09:23:21;;;;;;;0.00;0.00;;;;;;;3.45;100.00;97696.59;6224821;23;20016;-81
2024/03/01 09:25:47;;;;;;;0.00;0.00;;;;;;;3.52;100.00;97704.38;6224530;23;20099;-80
2024/03/01 09:28:14;;;;;;;0.00;0.00;;;;;;;3.56;100.00;97708.09;6225524;23;20008;-81
2024/03/01 09:30:40;;;;;;;0.00;0.00;;;;;;;3.58;100.00;97700.53;6223024;23;20012;-82
2024/03/01 09:33:10;;;;;;;0.00;0.00;;;;;;;3.76;100.00;97714.38;6200298;23;20019;-81
2024/03/01 09:35:37;;;;;;;0.00;0.00;;;;;;;3.66;100.00;97713.41;6198826;23;19999;-80
2024/03/01 09:38:03;;;;;;;0.00;0.00;;;;;;;3.44;100.00;97716.59;6198435;23;20007;-79
2024/03/01 09:40:37;;;;;;;0.00;0.00;;;;;;;3.24;100.00;97723.03;6222077;23;20427;-78
2024/03/01 09:43:13;;;;;;;;;;;;;;;3.16;100.00;97726.31;6220018;23;20003;-79
2024/03/01 09:45:54;;;;;;;0.00;0.00;;;;;;;3.17;100.00;97725.25;6224421;23;19908;-81
2024/03/01 09:49:01;;;;;;;0.00;0.00;;;;;;;3.28;100.00;97715.94;6223480;23;20026;-79
2024/03/01 09:51:38;;;;;;;0.00;0.00;;;;;;;3.39;100.00;97724.75;6172791;23;20016;-80
2024/03/01 09:54:09;;;;;;;0.10;0.10;;;;;;;3.51;100.00;97704.66;6227310;23;20081;-81
2024/03/01 09:56:46;;;;;;;0.00;0.00;;;;;;;3.73;100.00;97723.06;6222900;23;20004;-80
2024/03/01 09:59:31;;;;;;;0.08;0.08;;;;;;;3.74;100.00;97724.66;6226734;23;20000;-81
2024/03/01 10:02:26;;;;;;;0.00;0.00;;;;;;;3.82;100.00;97734.84;6222688;23;20007;-80
2024/03/01 10:05:04;;;;;;;0.10;0.10;;;;;;;4.07;100.00;97736.44;6224849;23;20012;-82
2024/03/01 10:07:55;;;;;;;0.00;0.00;;;;;;;4.23;100.00;97737.06;6225649;23;20059;-80
2024/03/01 10:10:36;;;;;;;0.00;0.00;;;;;;;4.47;100.00;97736.25;6222075;23;19997;-78
2024/03/01 10:13:19;;;;;;;0.00;0.00;;;;;;;4.67;100.00;97752.19;6224630;23;20102;-79
2024/03/01 10:16:06;;;;;;;0.00;0.00;;;;;;;5.13;100.00;97741.75;6252217;23;19996;-80
2024/03/01 10:19:01;;;;;;;0.10;0.10;;;;;;;5.22;100.00;97756.22;6225462;23;20008;-80
2024/03/01 10:21:56;;;;;;;0.00;0.00;;;;;;;4.93;100.00;97751.78;6222837;22;20016;-80
2024/03/01 10:24:22;;;;;;;0.10;0.10;;;;;;;4.87;100.00;97751.06;6200699;23;20000;-80
2024/03/01 10:27:01;;;;;;;0.00;0.00;;;;;;;5.02;100.00;97750.06;6210701;23;20005;-80
2024/03/01 10:29:49;;;;;;;0.00;0.00;;;;;;;5.41;100.00;97773.25;6192796;23;19993;-78
2024/03/01 10:32:39;;;;;;;0.00;0.00;;;;;;;5.71;100.00;97762.97;6193021;23;20012;-80
2024/03/01 10:35:27;;;;;;;0.00;0.00;;;;;;;6.67;100.00;97760.53;6193862;23;20066;-78
2024/03/01 10:38:21;;;;;;;0.00;0.00;;;;;;;8.82;100.00;97766.13;6217871;23;20005;-78
2024/03/01 10:40:54;;;;;;;0.00;0.00;;;;;;;12.23;100.00;97780.66;6192121;23;20051;-79
2024/03/01 10:43:36;;;;;;;0.00;0.00;;;;;;;15.06;100.00;97783.22;6190421;23;20005;-79
2024/03/01 10:46:28;;;;;;;0.00;0.00;;;;;;;17.26;89.91;97798.88;6191857;23;20077;-78
2024/03/01 10:49:21;;;;;;;0.10;0.10;;;;;;;16.63;81.29;97802.25;6191953;23;20005;-78
2024/03/01 10:51:52;;;;;;;0.00;0.00;;;;;;;16.68;87.46;97796.44;6191035;23;19992;-78
2024/03/01 10:54:23;;;;;;;0.00;0.00;;;;;;;17.34;73.68;97799.75;6191919;23;20004;-80
2024/03/01 10:56:54;;;;;;;0.00;0.00;;;;;;;18.28;80.42;97812.66;6170140;23;20341;-78
2024/03/01 10:59:42;;;;;;;0.00;0.00;;;;;;;19.37;73.03;97808.69;6193057;23;20008;-79
2024/03/01 11:02:23;;;;;;;0.00;0.00;;;;;;;21.91;64.34;97824.97;6195013;23;20412;-78
2024/03/01 11:05:03;;;;;;;0.00;0.00;;;;;;;21.77;51.15;97814.69;6191607;23;20009;-80
2024/03/01 11:07:32;;;;;;;0.00;0.00;;;;;;;21.49;54.76;97815.59;6192901;23;20035;-79
2024/03/01 11:10:24;;;;;;;0.00;0.00;;;;;;;22.44;55.10;97823.88;6196229;23;20012;-79
2024/03/01 11:12:59;;;;;;;0.00;0.00;;;;;;;22.97;52.65;97815.47;6170317;23;20336;-79
2024/03/01 11:15:29;;;;;;;0.00;0.00;;;;;;;23.76;47.74;97814.59;6193922;23;20015;-80
2024/03/01 11:17:57;;;;;;;0.00;0.00;;;;;;;22.92;37.03;97825.03;6220741;23;20308;-80
2024/03/01 11:20:28;;;;;;;0.00;0.00;;;;;;;21.04;46.22;97803.00;6194411;23;20024;-80
2024/03/01 11:23:13;;;;;;;0.00;0.00;;;;;;;21.74;39.92;97805.19;6219147;23;20012;-80
2024/03/01 11:26:01;;;;;;;0.00;0.00;;;;;;;21.93;42.76;97812.22;6225339;23;20023;-79
2024/03/01 11:28:31;;;;;;;0.00;0.00;;;;;;;22.27;34.87;97819.19;6252667;22;20016;-78
2024/03/01 11:31:11;;;;;;;0.00;0.00;;;;;;;22.82;36.74;97821.16;6225521;22;20013;-78
2024/03/01 11:33:41;;;;;;;0.00;0.00;;;;;;;23.40;36.06;97823.38;6227817;23;20005;-80
2024/03/01 11:36:37;;;;;;;0.05;0.05;;;;;;;22.83;36.33;97831.09;6257063;23;19992;-79
2024/03/01 11:39:37;;;;;;;0.00;0.00;;;;;;;22.85;31.98;97836.25;6256535;23;20056;-79
2024/03/01 11:42:28;;;;;;;0.08;0.08;;;;;;;21.71;34.27;97822.69;6230381;23;20075;-79
2024/03/01 11:44:59;;;;;;;0.00;0.00;;;;;;;20.58;36.29;97832.38;6250208;22;20035;-80
2024/03/01 11:47:39;;;;;;;0.10;0.10;;;;;;;22.58;33.37;97828.53;6225748;23;20488;-81
2024/03/01 11:50:11;;;;;;;0.00;0.00;;;;;;;25.16;31.99;97820.03;6249502;23;20004;-78
2024/03/01 11:52:36;;;;;;;0.00;0.00;;;;;;;25.82;29.20;97823.16;6226684;23;20008;-79
2024/03/01 11:55:22;;;;;;;0.00;0.00;;;;;;;26.06;30.61;97820.28;6249241;23;20060;-76
2024/03/01 11:58:16;;;;;;;0.00;0.00;;;;;;;26.68;28.23;97814.84;6252170;23;20435;-80
2024/03/01 12:00:45;;;;;;;0.00;0.00;;;;;;;27.45;27.23;97800.41;6224753;23;20007;-80
2024/03/01 12:03:29;;;;;;;0.00;0.00;;;;;;;26.06;25.13;97797.88;6222597;23;20082;-79
2024/03/01 12:06:37;;;;;;;0.00;0.00;;;;;;;24.93;27.92;97798.50;6222993;23;20047;-77
2024/03/01 12:09:26;;;;;;;0.00;0.00;;;;;;;25.02;28.76;97786.75;6220619;23;20069;-79
2024/03/01 12:12:15;;;;;;;0.00;0.00;;;;;;;24.79;29.41;97793.94;6217397;23;20004;-76
2024/03/01 12:14:55;;;;;;;0.00;0.00;;;;;;;24.76;27.64;97794.78;6223747;23;20036;-78
2024/03/01 12:17:30;;;;;;;0.00;0.00;;;;;;;24.83;28.90;97803.03;6221605;23;20004;-78
2024/03/01 12:20:06;;;;;;;0.00;0.00;;;;;;;26.04;27.66;97806.72;6223707;23;20035;-77
2024/03/01 12:22:50;;;;;;;0.00;0.00;;;;;;;26.98;24.76;97816.50;6221836;23;20064;-78
2024/03/01 12:25:18;;;;;;;0.00;0.00;;;;;;;24.99;24.99;97788.38;6225263;23;20007;-78
2024/03/01 12:28:08;;;;;;;0.00;0.00;;;;;;;19.17;31.17;97813.72;6196357;23;20019;-77
2024/03/01 12:30:37;;;;;;;0.00;0.00;;;;;;;15.93;35.24;97809.75;6221723;23;20190;-77
2024/03/01 12:33:36;;;;;;;0.00;0.00;;;;;;;15.93;39.46;97816.06;6225590;23;20008;-77
2024/03/01 12:36:12;;;;;;;0.00;0.00;;;;;;;19.78;37.02;97804.88;6222144;23;20087;-78
2024/03/01 12:38:43;;;;;;;0.00;0.00;;;;;;;22.98;30.64;97812.25;6226097;23;20004;-78
2024/03/01 12:41:32;;;;;;;0.00;0.00;;;;;;;23.78;27.64;97806.56;6222510;23;20008;-78
2024/03/01 12:44:32;;;;;;;0.00;0.00;;;;;;;22.74;28.59;97811.28;6225405;23;20004;-78
2024/03/01 12:47:32;;;;;;;0.00;0.00;;;;;;;23.51;27.05;97804.53;6227801;23;20023;-77
2024/03/01 12:50:21;;;;;;;0.00;0.00;;;;;;;24.14;26.92;97800.53;6224309;23;20008;-78
2024/03/01 12:53:12;;;;;;;0.00;0.00;;;;;;;22.88;28.04;97820.69;6251172;23;20004;-74
2024/03/01 12:56:01;;;;;;;0.00;0.00;;;;;;;22.75;28.92;97812.88;6222857;23;20052;-76
2024/03/01 12:58:30;;;;;;;0.00;0.00;;;;;;;22.74;31.30;97800.13;6246113;23;20008;-77
2024/03/01 13:01:01;;;;;;;0.00;0.00;;;;;;;24.23;27.85;97825.91;6250678;22;20129;-75
2024/03/01 13:03:50;;;;;;;0.00;0.00;;;;;;;24.41;27.67;97813.69;6218471;23;20351;-76